sensor_id;sensor_type;location;lat;lon;timestamp;P1;durP1;ratioP1;P2;durP2;ratioP2
9328;SDS011;4703;48.748;19.142;2022-11-20T00:01:28;21.90;;;15.33;;
9328;SDS011;4703;48.748;19.142;2022-11-20T00:03:56;21.10;;;14.33;;
9328;SDS011;4703;48.748;19.142;2022-11-20T00:06:24;20.47;;;14.30;;
9328;SDS011;4703;48.748;19.142;2022-11-20T00:08:56;20.13;;;13.80;;
9328;SDS011;4703;48.748;19.142;2022-11-20T00:11:27;24.67;;;15.07;;
9328;SDS011;4703;48.748;19.142;2022-11-20T00:13:56;24.70;;;14.60;;
9328;SDS011;4703;48.748;19.142;2022-11-20T00:16:26;21.30;;;13.60;;
9328;SDS011;4703;48.748;19.142;2022-11-20T00:18:55;22.47;;;12.77;;
9328;SDS011;4703;48.748;19.142;2022-11-20T00:21:25;18.67;;;12.87;;
9328;SDS011;4703;48.748;19.142;2022-11-20T00:23:54;17.30;;;11.53;;
9328;SDS011;4703;48.748;19.142;2022-11-20T00:26:23;20.47;;;14.20;;
9328;SDS011;4703;48.748;19.142;2022-11-20T00:28:55;21.73;;;13.83;;
9328;SDS011;4703;48.748;19.142;2022-11-20T00:31:24;18.73;;;12.73;;
9328;SDS011;4703;48.748;19.142;2022-11-20T00:33:51;20.53;;;13.30;;
9328;SDS011;4703;48.748;19.142;2022-11-20T00:36:20;23.27;;;15.27;;
9328;SDS011;4703;48.748;19.142;2022-11-20T00:38:52;20.80;;;13.90;;
9328;SDS011;4703;48.748;19.142;2022-11-20T00:41:22;21.63;;;13.30;;
9328;SDS011;4703;48.748;19.142;2022-11-20T00:43:51;23.20;;;14.60;;
9328;SDS011;4703;48.748;19.142;2022-11-20T00:46:20;24.70;;;13.40;;
9328;SDS011;4703;48.748;19.142;2022-11-20T00:48:49;19.43;;;13.03;;
9328;SDS011;4703;48.748;19.142;2022-11-20T00:51:18;20.83;;;12.50;;
9328;SDS011;4703;48.748;19.142;2022-11-20T00:53:47;17.90;;;13.47;;
9328;SDS011;4703;48.748;19.142;2022-11-20T00:56:16;19.80;;;12.00;;
9328;SDS011;4703;48.748;19.142;2022-11-20T00:58:45;21.40;;;13.40;;
9328;SDS011;4703;48.748;19.142;2022-11-20T01:01:15;25.03;;;13.67;;
9328;SDS011;4703;48.748;19.142;2022-11-20T01:03:48;21.20;;;13.20;;
9328;SDS011;4703;48.748;19.142;2022-11-20T01:06:18;18.83;;;12.93;;
9328;SDS011;4703;48.748;19.142;2022-11-20T01:08:50;17.30;;;12.30;;
9328;SDS011;4703;48.748;19.142;2022-11-20T01:11:31;22.73;;;14.50;;
9328;SDS011;4703;48.748;19.142;2022-11-20T01:14:01;19.83;;;12.70;;
9328;SDS011;4703;48.748;19.142;2022-11-20T01:16:32;22.50;;;14.57;;
9328;SDS011;4703;48.748;19.142;2022-11-20T01:19:03;22.40;;;14.27;;
9328;SDS011;4703;48.748;19.142;2022-11-20T01:21:36;22.70;;;14.23;;
9328;SDS011;4703;48.748;19.142;2022-11-20T01:24:06;23.93;;;14.50;;
9328;SDS011;4703;48.748;19.142;2022-11-20T01:26:37;20.27;;;14.87;;
9328;SDS011;4703;48.748;19.142;2022-11-20T01:29:06;22.87;;;14.30;;
9328;SDS011;4703;48.748;19.142;2022-11-20T01:31:42;23.60;;;13.27;;
9328;SDS011;4703;48.748;19.142;2022-11-20T01:34:10;23.80;;;15.40;;
9328;SDS011;4703;48.748;19.142;2022-11-20T01:36:44;21.60;;;15.67;;
9328;SDS011;4703;48.748;19.142;2022-11-20T01:39:13;23.00;;;13.60;;
9328;SDS011;4703;48.748;19.142;2022-11-20T01:41:52;19.47;;;12.60;;
9328;SDS011;4703;48.748;19.142;2022-11-20T01:45:00;20.10;;;14.13;;
9328;SDS011;4703;48.748;19.142;2022-11-20T01:49:58;22.87;;;13.13;;
9328;SDS011;4703;48.748;19.142;2022-11-20T01:52:52;22.20;;;13.57;;
9328;SDS011;4703;48.748;19.142;2022-11-20T01:55:31;19.90;;;12.77;;
9328;SDS011;4703;48.748;19.142;2022-11-20T01:58:02;19.23;;;13.30;;
9328;SDS011;4703;48.748;19.142;2022-11-20T02:00:33;17.30;;;12.07;;
9328;SDS011;4703;48.748;19.142;2022-11-20T02:03:01;21.70;;;15.30;;
9328;SDS011;4703;48.748;19.142;2022-11-20T02:05:35;21.60;;;13.00;;
9328;SDS011;4703;48.748;19.142;2022-11-20T02:08:12;22.60;;;15.20;;
9328;SDS011;4703;48.748;19.142;2022-11-20T02:10:40;23.77;;;14.00;;
9328;SDS011;4703;48.748;19.142;2022-11-20T02:13:07;21.40;;;13.87;;
9328;SDS011;4703;48.748;19.142;2022-11-20T02:15:53;21.07;;;13.60;;
9328;SDS011;4703;48.748;19.142;2022-11-20T02:18:20;22.10;;;15.43;;
9328;SDS011;4703;48.748;19.142;2022-11-20T02:20:48;24.10;;;14.07;;
9328;SDS011;4703;48.748;19.142;2022-11-20T02:23:32;17.70;;;12.73;;
9328;SDS011;4703;48.748;19.142;2022-11-20T02:26:27;20.33;;;14.40;;
9328;SDS011;4703;48.748;19.142;2022-11-20T02:28:58;19.57;;;13.50;;
9328;SDS011;4703;48.748;19.142;2022-11-20T02:31:28;23.77;;;14.23;;
9328;SDS011;4703;48.748;19.142;2022-11-20T02:33:56;24.47;;;14.30;;
9328;SDS011;4703;48.748;19.142;2022-11-20T02:36:24;22.50;;;15.00;;
9328;SDS011;4703;48.748;19.142;2022-11-20T02:38:53;20.67;;;13.47;;
9328;SDS011;4703;48.748;19.142;2022-11-20T02:41:20;17.70;;;13.30;;
9328;SDS011;4703;48.748;19.142;2022-11-20T02:43:58;23.53;;;13.47;;
9328;SDS011;4703;48.748;19.142;2022-11-20T02:46:25;23.57;;;13.90;;
9328;SDS011;4703;48.748;19.142;2022-11-20T02:48:52;26.23;;;14.10;;
9328;SDS011;4703;48.748;19.142;2022-11-20T02:51:20;19.83;;;13.07;;
9328;SDS011;4703;48.748;19.142;2022-11-20T02:53:46;23.60;;;15.97;;
9328;SDS011;4703;48.748;19.142;2022-11-20T02:56:13;20.27;;;14.33;;
9328;SDS011;4703;48.748;19.142;2022-11-20T02:58:41;24.00;;;15.03;;
9328;SDS011;4703;48.748;19.142;2022-11-20T03:01:08;18.83;;;13.07;;
9328;SDS011;4703;48.748;19.142;2022-11-20T03:03:35;23.20;;;13.70;;
9328;SDS011;4703;48.748;19.142;2022-11-20T03:06:02;19.40;;;13.10;;
9328;SDS011;4703;48.748;19.142;2022-11-20T03:08:29;23.33;;;13.67;;
9328;SDS011;4703;48.748;19.142;2022-11-20T03:10:56;19.37;;;13.27;;
9328;SDS011;4703;48.748;19.142;2022-11-20T03:13:28;19.07;;;14.13;;
9328;SDS011;4703;48.748;19.142;2022-11-20T03:15:55;22.10;;;13.37;;
9328;SDS011;4703;48.748;19.142;2022-11-20T03:18:22;22.73;;;13.10;;
9328;SDS011;4703;48.748;19.142;2022-11-20T03:20:49;21.23;;;13.80;;
9328;SDS011;4703;48.748;19.142;2022-11-20T03:23:16;18.90;;;13.30;;
9328;SDS011;4703;48.748;19.142;2022-11-20T03:25:43;22.20;;;14.57;;
9328;SDS011;4703;48.748;19.142;2022-11-20T03:28:10;24.50;;;13.53;;
9328;SDS011;4703;48.748;19.142;2022-11-20T03:30:37;20.80;;;14.20;;
9328;SDS011;4703;48.748;19.142;2022-11-20T03:33:03;23.60;;;13.40;;
9328;SDS011;4703;48.748;19.142;2022-11-20T03:35:31;26.53;;;14.70;;
9328;SDS011;4703;48.748;19.142;2022-11-20T03:37:58;21.20;;;14.67;;
9328;SDS011;4703;48.748;19.142;2022-11-20T03:40:25;20.90;;;14.03;;
9328;SDS011;4703;48.748;19.142;2022-11-20T03:42:52;21.33;;;13.70;;
9328;SDS011;4703;48.748;19.142;2022-11-20T03:45:18;21.50;;;14.60;;
9328;SDS011;4703;48.748;19.142;2022-11-20T03:47:45;20.97;;;13.67;;
9328;SDS011;4703;48.748;19.142;2022-11-20T03:50:13;23.57;;;13.70;;
9328;SDS011;4703;48.748;19.142;2022-11-20T03:52:40;19.73;;;11.83;;
9328;SDS011;4703;48.748;19.142;2022-11-20T03:55:08;20.90;;;12.87;;
9328;SDS011;4703;48.748;19.142;2022-11-20T03:57:35;20.67;;;12.60;;
9328;SDS011;4703;48.748;19.142;2022-11-20T04:00:02;22.90;;;15.00;;
9328;SDS011;4703;48.748;19.142;2022-11-20T04:02:31;18.33;;;14.80;;
9328;SDS011;4703;48.748;19.142;2022-11-20T04:04:58;22.13;;;14.47;;
9328;SDS011;4703;48.748;19.142;2022-11-20T04:07:25;20.20;;;12.90;;
9328;SDS011;4703;48.748;19.142;2022-11-20T04:09:52;20.10;;;13.10;;
9328;SDS011;4703;48.748;19.142;2022-11-20T04:12:19;19.43;;;12.00;;
9328;SDS011;4703;48.748;19.142;2022-11-20T04:14:46;16.10;;;11.80;;
9328;SDS011;4703;48.748;19.142;2022-11-20T04:17:13;18.77;;;12.53;;
9328;SDS011;4703;48.748;19.142;2022-11-20T04:19:40;18.40;;;11.80;;
9328;SDS011;4703;48.748;19.142;2022-11-20T04:22:07;19.80;;;13.27;;
9328;SDS011;4703;48.748;19.142;2022-11-20T04:24:34;17.40;;;11.77;;
9328;SDS011;4703;48.748;19.142;2022-11-20T04:27:01;19.83;;;13.20;;
9328;SDS011;4703;48.748;19.142;2022-11-20T04:29:28;17.53;;;11.80;;
9328;SDS011;4703;48.748;19.142;2022-11-20T04:31:55;20.07;;;11.73;;
9328;SDS011;4703;48.748;19.142;2022-11-20T04:34:22;19.23;;;13.07;;
9328;SDS011;4703;48.748;19.142;2022-11-20T04:36:49;18.40;;;11.87;;
9328;SDS011;4703;48.748;19.142;2022-11-20T04:39:16;17.07;;;11.90;;
9328;SDS011;4703;48.748;19.142;2022-11-20T04:41:43;17.40;;;13.53;;
9328;SDS011;4703;48.748;19.142;2022-11-20T04:44:10;19.23;;;11.57;;
9328;SDS011;4703;48.748;19.142;2022-11-20T04:46:41;17.67;;;10.97;;
9328;SDS011;4703;48.748;19.142;2022-11-20T04:49:09;17.53;;;11.67;;
9328;SDS011;4703;48.748;19.142;2022-11-20T04:51:38;18.60;;;12.60;;
9328;SDS011;4703;48.748;19.142;2022-11-20T04:54:05;17.20;;;12.13;;
9328;SDS011;4703;48.748;19.142;2022-11-20T04:56:31;16.13;;;12.93;;
9328;SDS011;4703;48.748;19.142;2022-11-20T04:59:01;15.67;;;12.20;;
9328;SDS011;4703;48.748;19.142;2022-11-20T05:01:29;18.27;;;12.37;;
9328;SDS011;4703;48.748;19.142;2022-11-20T05:03:56;18.13;;;12.57;;
9328;SDS011;4703;48.748;19.142;2022-11-20T05:06:23;15.30;;;11.53;;
9328;SDS011;4703;48.748;19.142;2022-11-20T05:08:50;17.90;;;12.23;;
9328;SDS011;4703;48.748;19.142;2022-11-20T05:11:18;19.70;;;13.53;;
9328;SDS011;4703;48.748;19.142;2022-11-20T05:13:47;18.47;;;12.60;;
9328;SDS011;4703;48.748;19.142;2022-11-20T05:16:16;18.70;;;11.80;;
9328;SDS011;4703;48.748;19.142;2022-11-20T05:18:47;21.00;;;13.10;;
9328;SDS011;4703;48.748;19.142;2022-11-20T05:21:14;17.83;;;12.60;;
9328;SDS011;4703;48.748;19.142;2022-11-20T05:23:42;18.50;;;12.40;;
9328;SDS011;4703;48.748;19.142;2022-11-20T05:26:22;18.60;;;13.03;;
9328;SDS011;4703;48.748;19.142;2022-11-20T05:28:49;17.60;;;12.90;;
9328;SDS011;4703;48.748;19.142;2022-11-20T05:31:21;19.47;;;13.90;;
9328;SDS011;4703;48.748;19.142;2022-11-20T05:33:54;21.50;;;15.03;;
9328;SDS011;4703;48.748;19.142;2022-11-20T05:36:22;22.20;;;13.43;;
9328;SDS011;4703;48.748;19.142;2022-11-20T05:38:50;22.27;;;14.57;;
9328;SDS011;4703;48.748;19.142;2022-11-20T05:41:22;24.00;;;16.40;;
9328;SDS011;4703;48.748;19.142;2022-11-20T05:43:49;22.73;;;14.93;;
9328;SDS011;4703;48.748;19.142;2022-11-20T05:46:20;16.67;;;12.03;;
9328;SDS011;4703;48.748;19.142;2022-11-20T05:48:54;20.40;;;13.80;;
9328;SDS011;4703;48.748;19.142;2022-11-20T05:51:23;19.30;;;12.90;;
9328;SDS011;4703;48.748;19.142;2022-11-20T05:53:53;23.23;;;14.30;;
9328;SDS011;4703;48.748;19.142;2022-11-20T05:56:22;19.93;;;13.70;;
9328;SDS011;4703;48.748;19.142;2022-11-20T05:58:49;21.53;;;13.43;;
9328;SDS011;4703;48.748;19.142;2022-11-20T06:01:21;19.93;;;12.80;;
9328;SDS011;4703;48.748;19.142;2022-11-20T06:03:50;19.27;;;12.70;;
9328;SDS011;4703;48.748;19.142;2022-11-20T06:06:19;23.07;;;14.33;;
9328;SDS011;4703;48.748;19.142;2022-11-20T06:08:46;19.70;;;14.40;;
9328;SDS011;4703;48.748;19.142;2022-11-20T06:11:14;21.93;;;14.33;;
9328;SDS011;4703;48.748;19.142;2022-11-20T06:13:43;19.30;;;13.53;;
9328;SDS011;4703;48.748;19.142;2022-11-20T06:16:13;18.63;;;14.00;;
9328;SDS011;4703;48.748;19.142;2022-11-20T06:18:42;19.23;;;12.40;;
9328;SDS011;4703;48.748;19.142;2022-11-20T06:21:11;17.63;;;12.80;;
9328;SDS011;4703;48.748;19.142;2022-11-20T06:23:45;20.90;;;13.00;;
9328;SDS011;4703;48.748;19.142;2022-11-20T06:26:14;25.20;;;15.20;;
9328;SDS011;4703;48.748;19.142;2022-11-20T06:28:44;29.07;;;17.00;;
9328;SDS011;4703;48.748;19.142;2022-11-20T06:31:12;34.40;;;22.03;;
9328;SDS011;4703;48.748;19.142;2022-11-20T06:33:41;23.17;;;15.63;;
9328;SDS011;4703;48.748;19.142;2022-11-20T06:36:09;22.53;;;14.20;;
9328;SDS011;4703;48.748;19.142;2022-11-20T06:38:39;23.83;;;14.40;;
9328;SDS011;4703;48.748;19.142;2022-11-20T06:41:07;24.63;;;16.00;;
9328;SDS011;4703;48.748;19.142;2022-11-20T06:43:38;17.97;;;13.10;;
9328;SDS011;4703;48.748;19.142;2022-11-20T06:46:05;21.10;;;14.70;;
9328;SDS011;4703;48.748;19.142;2022-11-20T06:48:33;24.57;;;14.47;;
9328;SDS011;4703;48.748;19.142;2022-11-20T06:51:00;22.60;;;14.30;;
9328;SDS011;4703;48.748;19.142;2022-11-20T06:53:30;24.77;;;15.00;;
9328;SDS011;4703;48.748;19.142;2022-11-20T06:55:58;21.23;;;14.17;;
9328;SDS011;4703;48.748;19.142;2022-11-20T06:58:29;22.50;;;15.27;;
9328;SDS011;4703;48.748;19.142;2022-11-20T07:01:02;21.57;;;14.57;;
9328;SDS011;4703;48.748;19.142;2022-11-20T07:03:32;21.70;;;14.67;;
9328;SDS011;4703;48.748;19.142;2022-11-20T07:05:59;19.30;;;13.20;;
9328;SDS011;4703;48.748;19.142;2022-11-20T07:08:28;56.57;;;37.73;;
9328;SDS011;4703;48.748;19.142;2022-11-20T07:10:59;46.20;;;31.83;;
9328;SDS011;4703;48.748;19.142;2022-11-20T07:13:28;21.73;;;16.30;;
9328;SDS011;4703;48.748;19.142;2022-11-20T07:15:59;17.93;;;12.60;;
9328;SDS011;4703;48.748;19.142;2022-11-20T07:18:31;20.77;;;14.90;;
9328;SDS011;4703;48.748;19.142;2022-11-20T07:21:02;22.90;;;14.73;;
9328;SDS011;4703;48.748;19.142;2022-11-20T07:23:31;26.07;;;15.17;;
9328;SDS011;4703;48.748;19.142;2022-11-20T07:26:01;23.60;;;15.00;;
9328;SDS011;4703;48.748;19.142;2022-11-20T07:28:33;19.73;;;14.73;;
9328;SDS011;4703;48.748;19.142;2022-11-20T07:31:00;23.03;;;15.90;;
9328;SDS011;4703;48.748;19.142;2022-11-20T07:33:28;22.67;;;15.47;;
9328;SDS011;4703;48.748;19.142;2022-11-20T07:35:55;25.40;;;16.63;;
9328;SDS011;4703;48.748;19.142;2022-11-20T07:38:22;26.10;;;16.40;;
9328;SDS011;4703;48.748;19.142;2022-11-20T07:40:52;26.03;;;17.00;;
9328;SDS011;4703;48.748;19.142;2022-11-20T07:43:21;25.30;;;16.70;;
9328;SDS011;4703;48.748;19.142;2022-11-20T07:45:48;26.57;;;17.27;;
9328;SDS011;4703;48.748;19.142;2022-11-20T07:48:15;49.80;;;33.23;;
9328;SDS011;4703;48.748;19.142;2022-11-20T07:50:42;28.90;;;19.80;;
9328;SDS011;4703;48.748;19.142;2022-11-20T07:53:09;27.20;;;16.27;;
9328;SDS011;4703;48.748;19.142;2022-11-20T07:55:36;23.97;;;16.00;;
9328;SDS011;4703;48.748;19.142;2022-11-20T07:58:03;19.20;;;14.57;;
9328;SDS011;4703;48.748;19.142;2022-11-20T08:00:30;29.60;;;17.73;;
9328;SDS011;4703;48.748;19.142;2022-11-20T08:02:57;26.37;;;17.17;;
9328;SDS011;4703;48.748;19.142;2022-11-20T08:05:24;27.27;;;16.27;;
9328;SDS011;4703;48.748;19.142;2022-11-20T08:07:51;23.53;;;16.20;;
9328;SDS011;4703;48.748;19.142;2022-11-20T08:10:18;25.37;;;16.73;;
9328;SDS011;4703;48.748;19.142;2022-11-20T08:15:33;20.93;;;14.37;;
9328;SDS011;4703;48.748;19.142;2022-11-20T08:18:10;20.50;;;14.73;;
9328;SDS011;4703;48.748;19.142;2022-11-20T08:21:00;20.83;;;14.87;;
9328;SDS011;4703;48.748;19.142;2022-11-20T08:23:29;21.63;;;14.27;;
9328;SDS011;4703;48.748;19.142;2022-11-20T08:25:57;43.07;;;28.17;;
9328;SDS011;4703;48.748;19.142;2022-11-20T08:28:23;38.33;;;23.33;;
9328;SDS011;4703;48.748;19.142;2022-11-20T08:30:57;22.93;;;16.70;;
9328;SDS011;4703;48.748;19.142;2022-11-20T08:33:28;22.90;;;15.83;;
9328;SDS011;4703;48.748;19.142;2022-11-20T08:35:59;20.50;;;14.27;;
9328;SDS011;4703;48.748;19.142;2022-11-20T08:38:30;19.23;;;13.70;;
9328;SDS011;4703;48.748;19.142;2022-11-20T08:40:58;22.43;;;13.77;;
9328;SDS011;4703;48.748;19.142;2022-11-20T08:43:46;18.60;;;12.23;;
9328;SDS011;4703;48.748;19.142;2022-11-20T08:46:13;16.30;;;12.90;;
9328;SDS011;4703;48.748;19.142;2022-11-20T08:48:40;18.90;;;14.20;;
9328;SDS011;4703;48.748;19.142;2022-11-20T08:51:07;16.53;;;11.70;;
9328;SDS011;4703;48.748;19.142;2022-11-20T08:53:34;20.37;;;13.37;;
9328;SDS011;4703;48.748;19.142;2022-11-20T08:56:00;20.90;;;13.70;;
9328;SDS011;4703;48.748;19.142;2022-11-20T08:58:27;18.07;;;13.40;;
9328;SDS011;4703;48.748;19.142;2022-11-20T09:00:56;24.80;;;17.73;;
9328;SDS011;4703;48.748;19.142;2022-11-20T09:03:23;46.27;;;31.07;;
9328;SDS011;4703;48.748;19.142;2022-11-20T09:05:58;27.20;;;19.50;;
9328;SDS011;4703;48.748;19.142;2022-11-20T09:08:28;20.27;;;14.90;;
9328;SDS011;4703;48.748;19.142;2022-11-20T09:10:56;18.17;;;13.63;;
9328;SDS011;4703;48.748;19.142;2022-11-20T09:13:24;15.37;;;12.40;;
9328;SDS011;4703;48.748;19.142;2022-11-20T09:15:57;16.47;;;13.30;;
9328;SDS011;4703;48.748;19.142;2022-11-20T09:18:27;16.07;;;13.00;;
9328;SDS011;4703;48.748;19.142;2022-11-20T09:20:58;17.53;;;13.80;;
9328;SDS011;4703;48.748;19.142;2022-11-20T09:23:27;17.27;;;12.43;;
9328;SDS011;4703;48.748;19.142;2022-11-20T09:25:57;18.90;;;13.13;;
9328;SDS011;4703;48.748;19.142;2022-11-20T09:28:25;20.17;;;14.63;;
9328;SDS011;4703;48.748;19.142;2022-11-20T09:30:53;20.27;;;13.87;;
9328;SDS011;4703;48.748;19.142;2022-11-20T09:33:20;19.07;;;13.43;;
9328;SDS011;4703;48.748;19.142;2022-11-20T09:35:47;15.93;;;12.60;;
9328;SDS011;4703;48.748;19.142;2022-11-20T09:38:14;19.83;;;13.33;;
9328;SDS011;4703;48.748;19.142;2022-11-20T09:40:44;16.70;;;11.87;;
9328;SDS011;4703;48.748;19.142;2022-11-20T09:46:37;15.87;;;12.30;;
9328;SDS011;4703;48.748;19.142;2022-11-20T09:55:35;19.37;;;12.87;;
9328;SDS011;4703;48.748;19.142;2022-11-20T09:58:05;17.70;;;11.97;;
9328;SDS011;4703;48.748;19.142;2022-11-20T10:00:34;18.00;;;13.23;;
9328;SDS011;4703;48.748;19.142;2022-11-20T10:03:11;18.23;;;13.37;;
9328;SDS011;4703;48.748;19.142;2022-11-20T10:05:45;19.77;;;13.60;;
9328;SDS011;4703;48.748;19.142;2022-11-20T10:08:21;16.73;;;12.73;;
9328;SDS011;4703;48.748;19.142;2022-11-20T10:22:36;14.03;;;10.70;;
9328;SDS011;4703;48.748;19.142;2022-11-20T10:25:44;16.03;;;12.20;;
9328;SDS011;4703;48.748;19.142;2022-11-20T10:28:43;16.87;;;12.07;;
9328;SDS011;4703;48.748;19.142;2022-11-20T10:31:38;14.63;;;11.00;;
9328;SDS011;4703;48.748;19.142;2022-11-20T10:34:20;17.97;;;12.43;;
9328;SDS011;4703;48.748;19.142;2022-11-20T10:39:51;33.73;;;20.67;;
9328;SDS011;4703;48.748;19.142;2022-11-20T10:43:06;37.90;;;25.93;;
9328;SDS011;4703;48.748;19.142;2022-11-20T10:45:22;23.17;;;14.20;;
9328;SDS011;4703;48.748;19.142;2022-11-20T10:48:21;19.27;;;13.67;;
9328;SDS011;4703;48.748;19.142;2022-11-20T10:50:57;20.83;;;13.07;;
9328;SDS011;4703;48.748;19.142;2022-11-20T10:56:20;16.40;;;11.60;;
9328;SDS011;4703;48.748;19.142;2022-11-20T11:05:04;18.43;;;13.67;;
9328;SDS011;4703;48.748;19.142;2022-11-20T11:07:56;16.47;;;12.23;;
9328;SDS011;4703;48.748;19.142;2022-11-20T11:10:32;17.43;;;12.83;;
9328;SDS011;4703;48.748;19.142;2022-11-20T11:13:07;15.43;;;11.90;;
9328;SDS011;4703;48.748;19.142;2022-11-20T11:15:53;17.07;;;13.10;;
9328;SDS011;4703;48.748;19.142;2022-11-20T11:18:31;14.60;;;12.37;;
9328;SDS011;4703;48.748;19.142;2022-11-20T11:21:01;15.90;;;12.80;;
9328;SDS011;4703;48.748;19.142;2022-11-20T11:23:40;19.10;;;11.97;;
9328;SDS011;4703;48.748;19.142;2022-11-20T11:26:22;14.20;;;11.50;;
9328;SDS011;4703;48.748;19.142;2022-11-20T11:31:26;14.33;;;11.87;;
9328;SDS011;4703;48.748;19.142;2022-11-20T11:34:05;13.63;;;11.00;;
9328;SDS011;4703;48.748;19.142;2022-11-20T11:36:33;16.93;;;11.47;;
9328;SDS011;4703;48.748;19.142;2022-11-20T11:39:03;16.43;;;12.50;;
9328;SDS011;4703;48.748;19.142;2022-11-20T11:41:38;15.30;;;11.03;;
9328;SDS011;4703;48.748;19.142;2022-11-20T11:47:22;14.00;;;11.90;;
9328;SDS011;4703;48.748;19.142;2022-11-20T11:58:33;14.27;;;10.70;;
9328;SDS011;4703;48.748;19.142;2022-11-20T12:01:19;15.07;;;10.37;;
9328;SDS011;4703;48.748;19.142;2022-11-20T12:04:13;13.80;;;10.30;;
9328;SDS011;4703;48.748;19.142;2022-11-20T12:07:09;14.17;;;10.23;;
9328;SDS011;4703;48.748;19.142;2022-11-20T12:10:03;12.67;;;9.90;;
9328;SDS011;4703;48.748;19.142;2022-11-20T12:12:36;14.53;;;11.30;;
9328;SDS011;4703;48.748;19.142;2022-11-20T12:15:10;14.20;;;10.27;;
9328;SDS011;4703;48.748;19.142;2022-11-20T12:17:48;15.90;;;11.60;;
9328;SDS011;4703;48.748;19.142;2022-11-20T12:20:15;17.60;;;11.77;;
9328;SDS011;4703;48.748;19.142;2022-11-20T12:25:27;11.80;;;10.07;;
9328;SDS011;4703;48.748;19.142;2022-11-20T12:28:18;13.37;;;10.30;;
9328;SDS011;4703;48.748;19.142;2022-11-20T12:34:24;15.60;;;10.23;;
9328;SDS011;4703;48.748;19.142;2022-11-20T12:37:16;9.67;;;8.43;;
9328;SDS011;4703;48.748;19.142;2022-11-20T12:39:50;9.40;;;7.83;;
9328;SDS011;4703;48.748;19.142;2022-11-20T12:42:38;7.67;;;6.20;;
9328;SDS011;4703;48.748;19.142;2022-11-20T12:48:25;5.83;;;4.73;;
9328;SDS011;4703;48.748;19.142;2022-11-20T12:57:19;4.10;;;3.50;;
9328;SDS011;4703;48.748;19.142;2022-11-20T13:17:04;3.40;;;3.10;;
9328;SDS011;4703;48.748;19.142;2022-11-20T13:19:32;3.50;;;2.80;;
9328;SDS011;4703;48.748;19.142;2022-11-20T13:22:00;2.80;;;2.60;;
9328;SDS011;4703;48.748;19.142;2022-11-20T13:24:28;3.03;;;2.83;;
9328;SDS011;4703;48.748;19.142;2022-11-20T13:29:58;3.33;;;3.00;;
9328;SDS011;4703;48.748;19.142;2022-11-20T13:32:29;3.90;;;3.50;;
9328;SDS011;4703;48.748;19.142;2022-11-20T13:34:59;3.40;;;3.10;;
9328;SDS011;4703;48.748;19.142;2022-11-20T13:37:31;3.30;;;3.00;;
9328;SDS011;4703;48.748;19.142;2022-11-20T13:45:10;4.03;;;3.63;;
9328;SDS011;4703;48.748;19.142;2022-11-20T13:47:50;3.07;;;2.80;;
9328;SDS011;4703;48.748;19.142;2022-11-20T13:50:18;3.83;;;3.53;;
9328;SDS011;4703;48.748;19.142;2022-11-20T13:55:41;3.43;;;3.13;;
9328;SDS011;4703;48.748;19.142;2022-11-20T14:01:11;3.80;;;3.37;;
9328;SDS011;4703;48.748;19.142;2022-11-20T14:03:45;4.00;;;3.60;;
9328;SDS011;4703;48.748;19.142;2022-11-20T14:06:34;4.87;;;3.27;;
9328;SDS011;4703;48.748;19.142;2022-11-20T14:09:10;4.37;;;3.90;;
9328;SDS011;4703;48.748;19.142;2022-11-20T14:11:45;4.23;;;3.27;;
9328;SDS011;4703;48.748;19.142;2022-11-20T14:14:18;18.00;;;11.93;;
9328;SDS011;4703;48.748;19.142;2022-11-20T14:16:51;12.63;;;9.23;;
9328;SDS011;4703;48.748;19.142;2022-11-20T14:19:31;6.70;;;4.70;;
9328;SDS011;4703;48.748;19.142;2022-11-20T14:24:47;4.00;;;3.60;;
9328;SDS011;4703;48.748;19.142;2022-11-20T14:27:16;4.07;;;3.50;;
9328;SDS011;4703;48.748;19.142;2022-11-20T14:29:47;4.53;;;3.80;;
9328;SDS011;4703;48.748;19.142;2022-11-20T14:32:19;4.80;;;3.60;;
9328;SDS011;4703;48.748;19.142;2022-11-20T14:34:51;2.97;;;2.77;;
9328;SDS011;4703;48.748;19.142;2022-11-20T14:37:24;4.57;;;3.70;;
9328;SDS011;4703;48.748;19.142;2022-11-20T14:39:55;4.80;;;3.73;;
9328;SDS011;4703;48.748;19.142;2022-11-20T14:42:25;5.50;;;3.87;;
9328;SDS011;4703;48.748;19.142;2022-11-20T14:44:55;4.30;;;3.90;;
9328;SDS011;4703;48.748;19.142;2022-11-20T14:47:25;4.63;;;3.90;;
9328;SDS011;4703;48.748;19.142;2022-11-20T14:49:55;4.20;;;3.83;;
9328;SDS011;4703;48.748;19.142;2022-11-20T14:52:25;5.37;;;4.63;;
9328;SDS011;4703;48.748;19.142;2022-11-20T14:54:54;5.83;;;4.93;;
9328;SDS011;4703;48.748;19.142;2022-11-20T14:57:27;7.83;;;6.33;;
9328;SDS011;4703;48.748;19.142;2022-11-20T15:02:40;11.17;;;6.17;;
9328;SDS011;4703;48.748;19.142;2022-11-20T15:05:08;7.33;;;6.27;;
9328;SDS011;4703;48.748;19.142;2022-11-20T15:07:37;6.40;;;5.80;;
9328;SDS011;4703;48.748;19.142;2022-11-20T15:10:22;14.30;;;9.90;;
9328;SDS011;4703;48.748;19.142;2022-11-20T15:12:53;27.67;;;18.90;;
9328;SDS011;4703;48.748;19.142;2022-11-20T15:15:33;12.63;;;9.43;;
9328;SDS011;4703;48.748;19.142;2022-11-20T15:18:19;10.13;;;7.20;;
9328;SDS011;4703;48.748;19.142;2022-11-20T15:20:50;11.23;;;9.67;;
9328;SDS011;4703;48.748;19.142;2022-11-20T15:23:18;11.67;;;7.93;;
9328;SDS011;4703;48.748;19.142;2022-11-20T15:25:46;7.27;;;5.67;;
9328;SDS011;4703;48.748;19.142;2022-11-20T15:28:18;7.60;;;5.77;;
9328;SDS011;4703;48.748;19.142;2022-11-20T15:30:56;8.57;;;5.90;;
9328;SDS011;4703;48.748;19.142;2022-11-20T15:33:24;8.07;;;5.77;;
9328;SDS011;4703;48.748;19.142;2022-11-20T15:35:51;6.97;;;5.70;;
9328;SDS011;4703;48.748;19.142;2022-11-20T15:38:18;8.70;;;6.00;;
9328;SDS011;4703;48.748;19.142;2022-11-20T15:40:44;7.00;;;5.90;;
9328;SDS011;4703;48.748;19.142;2022-11-20T15:43:12;10.30;;;6.77;;
9328;SDS011;4703;48.748;19.142;2022-11-20T15:45:43;8.13;;;7.33;;
9328;SDS011;4703;48.748;19.142;2022-11-20T15:48:18;12.50;;;7.30;;
9328;SDS011;4703;48.748;19.142;2022-11-20T15:51:24;8.67;;;6.33;;
9328;SDS011;4703;48.748;19.142;2022-11-20T15:56:51;13.90;;;9.83;;
9328;SDS011;4703;48.748;19.142;2022-11-20T15:59:18;11.93;;;7.80;;
9328;SDS011;4703;48.748;19.142;2022-11-20T16:01:46;7.13;;;6.47;;
9328;SDS011;4703;48.748;19.142;2022-11-20T16:04:13;7.97;;;6.20;;
9328;SDS011;4703;48.748;19.142;2022-11-20T16:06:42;8.37;;;6.80;;
9328;SDS011;4703;48.748;19.142;2022-11-20T16:09:09;10.33;;;8.43;;
9328;SDS011;4703;48.748;19.142;2022-11-20T16:11:36;10.37;;;8.23;;
9328;SDS011;4703;48.748;19.142;2022-11-20T16:14:04;9.90;;;8.17;;
9328;SDS011;4703;48.748;19.142;2022-11-20T16:16:50;11.73;;;9.40;;
9328;SDS011;4703;48.748;19.142;2022-11-20T16:19:17;10.17;;;8.53;;
9328;SDS011;4703;48.748;19.142;2022-11-20T16:21:44;12.73;;;8.93;;
9328;SDS011;4703;48.748;19.142;2022-11-20T16:24:13;12.10;;;8.57;;
9328;SDS011;4703;48.748;19.142;2022-11-20T16:26:41;11.50;;;7.47;;
9328;SDS011;4703;48.748;19.142;2022-11-20T16:29:08;11.80;;;8.90;;
9328;SDS011;4703;48.748;19.142;2022-11-20T16:31:36;10.40;;;8.40;;
9328;SDS011;4703;48.748;19.142;2022-11-20T16:34:04;13.87;;;7.80;;
9328;SDS011;4703;48.748;19.142;2022-11-20T16:36:41;10.73;;;8.60;;
9328;SDS011;4703;48.748;19.142;2022-11-20T16:39:10;17.77;;;14.03;;
9328;SDS011;4703;48.748;19.142;2022-11-20T16:41:38;19.20;;;12.37;;
9328;SDS011;4703;48.748;19.142;2022-11-20T16:44:09;13.13;;;10.50;;
9328;SDS011;4703;48.748;19.142;2022-11-20T16:46:37;12.43;;;9.50;;
9328;SDS011;4703;48.748;19.142;2022-11-20T16:49:06;14.57;;;12.10;;
9328;SDS011;4703;48.748;19.142;2022-11-20T16:51:39;16.10;;;12.10;;